sensor_id;sensor_type;location;lat;lon;timestamp;P1;durP1;ratioP1;P2;durP2;ratioP2
18102;SDS011;9178;51.120;6.192;2023-04-01T00:02:14;5.00;;;0.83;;
18102;SDS011;9178;51.120;6.192;2023-04-01T00:04:41;2.80;;;0.80;;
18102;SDS011;9178;51.120;6.192;2023-04-01T00:07:08;4.37;;;0.87;;
18102;SDS011;9178;51.120;6.192;2023-04-01T00:09:35;2.30;;;0.80;;
18102;SDS011;9178;51.120;6.192;2023-04-01T00:12:03;5.77;;;0.90;;
18102;SDS011;9178;51.120;6.192;2023-04-01T00:14:30;2.27;;;0.90;;
18102;SDS011;9178;51.120;6.192;2023-04-01T00:16:58;2.03;;;0.80;;
18102;SDS011;9178;51.120;6.192;2023-04-01T00:19:25;3.23;;;0.73;;
18102;SDS011;9178;51.120;6.192;2023-04-01T00:21:52;2.20;;;0.87;;
18102;SDS011;9178;51.120;6.192;2023-04-01T00:24:19;3.67;;;1.03;;
18102;SDS011;9178;51.120;6.192;2023-04-01T00:26:46;3.37;;;0.80;;
18102;SDS011;9178;51.120;6.192;2023-04-01T00:29:13;3.60;;;1.00;;
18102;SDS011;9178;51.120;6.192;2023-04-01T00:31:40;3.70;;;0.80;;
18102;SDS011;9178;51.120;6.192;2023-04-01T00:34:08;3.43;;;0.80;;
18102;SDS011;9178;51.120;6.192;2023-04-01T00:36:35;3.20;;;0.67;;
18102;SDS011;9178;51.120;6.192;2023-04-01T00:39:03;3.20;;;0.60;;
18102;SDS011;9178;51.120;6.192;2023-04-01T00:41:30;2.83;;;0.73;;
18102;SDS011;9178;51.120;6.192;2023-04-01T00:44:11;3.77;;;0.97;;
18102;SDS011;9178;51.120;6.192;2023-04-01T00:46:44;1.07;;;0.53;;
18102;SDS011;9178;51.120;6.192;2023-04-01T00:49:12;2.30;;;0.67;;
18102;SDS011;9178;51.120;6.192;2023-04-01T00:51:40;4.07;;;1.17;;
18102;SDS011;9178;51.120;6.192;2023-04-01T00:54:08;2.33;;;0.70;;
18102;SDS011;9178;51.120;6.192;2023-04-01T00:56:37;1.97;;;0.80;;
18102;SDS011;9178;51.120;6.192;2023-04-01T00:59:10;1.47;;;0.70;;
18102;SDS011;9178;51.120;6.192;2023-04-01T01:01:40;2.73;;;0.60;;
18102;SDS011;9178;51.120;6.192;2023-04-01T01:04:21;0.73;;;0.40;;
18102;SDS011;9178;51.120;6.192;2023-04-01T01:06:51;1.90;;;0.60;;
18102;SDS011;9178;51.120;6.192;2023-04-01T01:09:29;1.73;;;0.53;;
18102;SDS011;9178;51.120;6.192;2023-04-01T01:12:03;2.77;;;0.60;;
18102;SDS011;9178;51.120;6.192;2023-04-01T01:14:44;1.63;;;0.60;;
18102;SDS011;9178;51.120;6.192;2023-04-01T01:17:23;4.03;;;0.60;;
18102;SDS011;9178;51.120;6.192;2023-04-01T01:20:08;2.00;;;0.77;;
18102;SDS011;9178;51.120;6.192;2023-04-01T01:25:58;4.23;;;0.70;;
18102;SDS011;9178;51.120;6.192;2023-04-01T01:28:41;3.27;;;0.70;;
18102;SDS011;9178;51.120;6.192;2023-04-01T01:31:19;2.10;;;0.70;;
18102;SDS011;9178;51.120;6.192;2023-04-01T01:33:54;1.57;;;0.73;;
18102;SDS011;9178;51.120;6.192;2023-04-01T01:36:31;3.33;;;0.87;;
18102;SDS011;9178;51.120;6.192;2023-04-01T01:39:00;2.53;;;0.67;;
18102;SDS011;9178;51.120;6.192;2023-04-01T01:41:29;1.13;;;0.63;;
18102;SDS011;9178;51.120;6.192;2023-04-01T01:43:58;4.97;;;1.00;;
18102;SDS011;9178;51.120;6.192;2023-04-01T01:46:28;2.93;;;0.83;;
18102;SDS011;9178;51.120;6.192;2023-04-01T01:48:57;4.60;;;0.80;;
18102;SDS011;9178;51.120;6.192;2023-04-01T01:51:26;4.07;;;1.27;;
18102;SDS011;9178;51.120;6.192;2023-04-01T01:53:55;2.63;;;0.70;;
18102;SDS011;9178;51.120;6.192;2023-04-01T01:56:23;1.20;;;0.70;;
18102;SDS011;9178;51.120;6.192;2023-04-01T01:58:54;1.47;;;0.67;;
18102;SDS011;9178;51.120;6.192;2023-04-01T02:01:25;3.30;;;0.90;;
18102;SDS011;9178;51.120;6.192;2023-04-01T02:03:56;2.97;;;0.67;;
18102;SDS011;9178;51.120;6.192;2023-04-01T02:06:25;1.70;;;0.70;;
18102;SDS011;9178;51.120;6.192;2023-04-01T02:08:55;2.37;;;0.90;;
18102;SDS011;9178;51.120;6.192;2023-04-01T02:11:26;1.70;;;0.70;;
18102;SDS011;9178;51.120;6.192;2023-04-01T02:13:58;1.77;;;0.73;;
18102;SDS011;9178;51.120;6.192;2023-04-01T02:16:31;2.33;;;0.90;;
18102;SDS011;9178;51.120;6.192;2023-04-01T02:19:01;2.33;;;1.07;;
18102;SDS011;9178;51.120;6.192;2023-04-01T02:21:32;2.93;;;0.97;;
18102;SDS011;9178;51.120;6.192;2023-04-01T02:24:02;1.60;;;0.80;;
18102;SDS011;9178;51.120;6.192;2023-04-01T02:26:32;1.87;;;0.80;;
18102;SDS011;9178;51.120;6.192;2023-04-01T02:29:00;3.27;;;0.93;;
18102;SDS011;9178;51.120;6.192;2023-04-01T02:31:28;2.03;;;0.70;;
18102;SDS011;9178;51.120;6.192;2023-04-01T02:33:56;4.43;;;0.70;;
18102;SDS011;9178;51.120;6.192;2023-04-01T02:36:23;3.43;;;1.00;;
18102;SDS011;9178;51.120;6.192;2023-04-01T02:38:50;2.47;;;0.90;;
18102;SDS011;9178;51.120;6.192;2023-04-01T02:41:21;1.73;;;0.90;;
18102;SDS011;9178;51.120;6.192;2023-04-01T02:43:48;1.53;;;0.80;;
18102;SDS011;9178;51.120;6.192;2023-04-01T02:46:15;1.80;;;0.60;;
18102;SDS011;9178;51.120;6.192;2023-04-01T02:48:42;1.43;;;0.70;;
18102;SDS011;9178;51.120;6.192;2023-04-01T02:51:10;1.90;;;0.60;;
18102;SDS011;9178;51.120;6.192;2023-04-01T02:53:37;3.43;;;0.60;;
18102;SDS011;9178;51.120;6.192;2023-04-01T02:56:04;1.10;;;0.57;;
18102;SDS011;9178;51.120;6.192;2023-04-01T02:58:38;1.20;;;0.60;;
18102;SDS011;9178;51.120;6.192;2023-04-01T03:01:05;2.60;;;0.70;;
18102;SDS011;9178;51.120;6.192;2023-04-01T03:03:33;2.13;;;0.90;;
18102;SDS011;9178;51.120;6.192;2023-04-01T03:06:04;1.33;;;0.70;;
18102;SDS011;9178;51.120;6.192;2023-04-01T03:08:31;1.33;;;0.57;;
18102;SDS011;9178;51.120;6.192;2023-04-01T03:10:58;1.67;;;0.60;;
18102;SDS011;9178;51.120;6.192;2023-04-01T03:13:28;0.77;;;0.63;;
18102;SDS011;9178;51.120;6.192;2023-04-01T03:15:56;7.67;;;1.73;;
18102;SDS011;9178;51.120;6.192;2023-04-01T03:18:23;1.03;;;0.60;;
18102;SDS011;9178;51.120;6.192;2023-04-01T03:20:50;1.23;;;0.80;;
18102;SDS011;9178;51.120;6.192;2023-04-01T03:23:17;1.30;;;0.73;;
18102;SDS011;9178;51.120;6.192;2023-04-01T03:25:46;1.13;;;0.80;;
18102;SDS011;9178;51.120;6.192;2023-04-01T03:28:13;1.57;;;0.77;;
18102;SDS011;9178;51.120;6.192;2023-04-01T03:30:39;1.23;;;0.70;;
18102;SDS011;9178;51.120;6.192;2023-04-01T03:33:08;2.57;;;0.83;;
18102;SDS011;9178;51.120;6.192;2023-04-01T03:35:40;1.40;;;0.80;;
18102;SDS011;9178;51.120;6.192;2023-04-01T03:38:07;1.90;;;0.87;;
18102;SDS011;9178;51.120;6.192;2023-04-01T03:40:34;1.27;;;1.00;;
18102;SDS011;9178;51.120;6.192;2023-04-01T03:43:05;1.00;;;0.80;;
18102;SDS011;9178;51.120;6.192;2023-04-01T03:45:33;2.33;;;0.70;;
18102;SDS011;9178;51.120;6.192;2023-04-01T03:48:03;1.33;;;0.80;;
18102;SDS011;9178;51.120;6.192;2023-04-01T03:50:31;0.73;;;0.70;;
18102;SDS011;9178;51.120;6.192;2023-04-01T03:53:09;0.77;;;0.77;;
18102;SDS011;9178;51.120;6.192;2023-04-01T03:55:36;1.03;;;1.00;;
18102;SDS011;9178;51.120;6.192;2023-04-01T03:58:16;2.70;;;0.93;;
18102;SDS011;9178;51.120;6.192;2023-04-01T04:00:43;1.33;;;0.90;;
18102;SDS011;9178;51.120;6.192;2023-04-01T04:03:10;1.63;;;0.80;;
18102;SDS011;9178;51.120;6.192;2023-04-01T04:05:48;2.30;;;0.90;;
18102;SDS011;9178;51.120;6.192;2023-04-01T04:08:15;2.40;;;0.90;;
18102;SDS011;9178;51.120;6.192;2023-04-01T04:10:43;1.50;;;0.83;;
18102;SDS011;9178;51.120;6.192;2023-04-01T04:13:11;2.83;;;1.00;;
18102;SDS011;9178;51.120;6.192;2023-04-01T04:15:38;2.53;;;1.00;;
18102;SDS011;9178;51.120;6.192;2023-04-01T04:18:05;0.90;;;0.90;;
18102;SDS011;9178;51.120;6.192;2023-04-01T04:20:31;1.70;;;1.00;;
18102;SDS011;9178;51.120;6.192;2023-04-01T04:23:01;3.17;;;1.00;;
18102;SDS011;9178;51.120;6.192;2023-04-01T04:25:27;1.93;;;1.33;;
18102;SDS011;9178;51.120;6.192;2023-04-01T04:27:56;1.43;;;1.20;;
18102;SDS011;9178;51.120;6.192;2023-04-01T04:30:23;3.07;;;1.60;;
18102;SDS011;9178;51.120;6.192;2023-04-01T04:32:49;3.23;;;1.50;;
18102;SDS011;9178;51.120;6.192;2023-04-01T04:35:16;1.47;;;1.33;;
18102;SDS011;9178;51.120;6.192;2023-04-01T04:37:43;1.90;;;1.70;;
18102;SDS011;9178;51.120;6.192;2023-04-01T04:40:11;1.80;;;1.70;;
18102;SDS011;9178;51.120;6.192;2023-04-01T04:42:38;1.87;;;1.63;;
18102;SDS011;9178;51.120;6.192;2023-04-01T04:45:08;3.60;;;1.60;;
18102;SDS011;9178;51.120;6.192;2023-04-01T04:47:35;1.60;;;1.50;;
18102;SDS011;9178;51.120;6.192;2023-04-01T04:50:02;2.20;;;1.73;;
18102;SDS011;9178;51.120;6.192;2023-04-01T04:52:30;3.47;;;1.70;;
18102;SDS011;9178;51.120;6.192;2023-04-01T04:54:57;2.80;;;1.93;;
18102;SDS011;9178;51.120;6.192;2023-04-01T04:57:25;1.93;;;1.77;;
18102;SDS011;9178;51.120;6.192;2023-04-01T04:59:51;2.27;;;1.77;;
18102;SDS011;9178;51.120;6.192;2023-04-01T05:02:18;2.50;;;2.03;;
18102;SDS011;9178;51.120;6.192;2023-04-01T05:04:47;2.80;;;1.87;;
18102;SDS011;9178;51.120;6.192;2023-04-01T05:07:14;2.17;;;1.83;;
18102;SDS011;9178;51.120;6.192;2023-04-01T05:09:41;3.53;;;2.00;;
18102;SDS011;9178;51.120;6.192;2023-04-01T05:12:08;2.90;;;1.80;;
18102;SDS011;9178;51.120;6.192;2023-04-01T05:14:38;2.27;;;2.07;;
18102;SDS011;9178;51.120;6.192;2023-04-01T05:17:07;2.47;;;2.03;;
18102;SDS011;9178;51.120;6.192;2023-04-01T05:19:35;2.30;;;2.03;;
18102;SDS011;9178;51.120;6.192;2023-04-01T05:22:02;2.37;;;2.17;;
18102;SDS011;9178;51.120;6.192;2023-04-01T05:24:30;4.57;;;2.10;;
18102;SDS011;9178;51.120;6.192;2023-04-01T05:26:58;2.00;;;1.90;;
18102;SDS011;9178;51.120;6.192;2023-04-01T05:29:25;2.57;;;2.00;;
18102;SDS011;9178;51.120;6.192;2023-04-01T05:31:53;1.80;;;1.70;;
18102;SDS011;9178;51.120;6.192;2023-04-01T05:34:20;2.00;;;1.90;;
18102;SDS011;9178;51.120;6.192;2023-04-01T05:36:47;1.70;;;1.60;;
18102;SDS011;9178;51.120;6.192;2023-04-01T05:39:14;3.30;;;1.90;;
18102;SDS011;9178;51.120;6.192;2023-04-01T05:41:49;4.27;;;1.90;;
18102;SDS011;9178;51.120;6.192;2023-04-01T05:44:16;1.97;;;1.77;;
18102;SDS011;9178;51.120;6.192;2023-04-01T05:46:46;2.87;;;1.80;;
18102;SDS011;9178;51.120;6.192;2023-04-01T05:49:14;3.97;;;2.10;;
18102;SDS011;9178;51.120;6.192;2023-04-01T05:51:41;2.40;;;2.20;;
18102;SDS011;9178;51.120;6.192;2023-04-01T05:54:08;2.30;;;2.10;;
18102;SDS011;9178;51.120;6.192;2023-04-01T05:56:34;2.33;;;2.07;;
18102;SDS011;9178;51.120;6.192;2023-04-01T05:59:01;2.37;;;1.90;;
18102;SDS011;9178;51.120;6.192;2023-04-01T06:01:28;2.07;;;1.97;;
18102;SDS011;9178;51.120;6.192;2023-04-01T06:03:55;2.30;;;2.07;;
18102;SDS011;9178;51.120;6.192;2023-04-01T06:06:25;2.47;;;1.90;;
18102;SDS011;9178;51.120;6.192;2023-04-01T06:08:53;3.00;;;2.03;;
18102;SDS011;9178;51.120;6.192;2023-04-01T06:11:26;3.43;;;2.00;;
18102;SDS011;9178;51.120;6.192;2023-04-01T06:14:07;2.57;;;1.80;;
18102;SDS011;9178;51.120;6.192;2023-04-01T06:16:45;2.60;;;1.80;;
18102;SDS011;9178;51.120;6.192;2023-04-01T06:19:24;2.10;;;2.00;;
18102;SDS011;9178;51.120;6.192;2023-04-01T06:22:11;2.00;;;1.90;;
18102;SDS011;9178;51.120;6.192;2023-04-01T06:25:13;3.30;;;2.10;;
18102;SDS011;9178;51.120;6.192;2023-04-01T06:28:07;3.40;;;2.10;;
18102;SDS011;9178;51.120;6.192;2023-04-01T06:30:55;2.00;;;1.90;;
18102;SDS011;9178;51.120;6.192;2023-04-01T06:33:35;2.20;;;2.00;;
18102;SDS011;9178;51.120;6.192;2023-04-01T06:36:15;2.60;;;2.40;;
18102;SDS011;9178;51.120;6.192;2023-04-01T06:38:55;4.13;;;2.47;;
18102;SDS011;9178;51.120;6.192;2023-04-01T06:41:52;2.40;;;2.20;;
18102;SDS011;9178;51.120;6.192;2023-04-01T06:44:33;2.13;;;1.97;;
18102;SDS011;9178;51.120;6.192;2023-04-01T06:47:10;3.37;;;2.17;;
18102;SDS011;9178;51.120;6.192;2023-04-01T06:49:51;2.63;;;2.43;;
18102;SDS011;9178;51.120;6.192;2023-04-01T06:52:26;5.53;;;2.63;;
18102;SDS011;9178;51.120;6.192;2023-04-01T06:55:09;2.57;;;2.27;;
18102;SDS011;9178;51.120;6.192;2023-04-01T06:57:47;3.20;;;2.53;;
18102;SDS011;9178;51.120;6.192;2023-04-01T07:00:19;3.77;;;2.67;;
18102;SDS011;9178;51.120;6.192;2023-04-01T07:02:54;3.37;;;2.47;;
18102;SDS011;9178;51.120;6.192;2023-04-01T07:05:26;3.20;;;2.30;;
18102;SDS011;9178;51.120;6.192;2023-04-01T07:07:57;3.40;;;2.80;;
18102;SDS011;9178;51.120;6.192;2023-04-01T07:10:31;3.60;;;2.70;;
18102;SDS011;9178;51.120;6.192;2023-04-01T07:13:02;3.30;;;2.63;;
18102;SDS011;9178;51.120;6.192;2023-04-01T07:15:40;2.40;;;2.20;;
18102;SDS011;9178;51.120;6.192;2023-04-01T07:18:15;4.03;;;2.40;;
18102;SDS011;9178;51.120;6.192;2023-04-01T07:20:46;2.93;;;2.40;;
18102;SDS011;9178;51.120;6.192;2023-04-01T07:23:22;2.40;;;2.20;;
18102;SDS011;9178;51.120;6.192;2023-04-01T07:25:53;2.33;;;2.13;;
18102;SDS011;9178;51.120;6.192;2023-04-01T07:28:26;2.80;;;2.30;;
18102;SDS011;9178;51.120;6.192;2023-04-01T07:31:01;4.10;;;2.40;;
18102;SDS011;9178;51.120;6.192;2023-04-01T07:33:36;3.17;;;2.63;;
18102;SDS011;9178;51.120;6.192;2023-04-01T07:36:09;3.93;;;2.67;;
18102;SDS011;9178;51.120;6.192;2023-04-01T07:38:49;3.00;;;2.57;;
18102;SDS011;9178;51.120;6.192;2023-04-01T07:41:27;2.80;;;2.60;;
18102;SDS011;9178;51.120;6.192;2023-04-01T07:44:01;2.80;;;2.60;;
18102;SDS011;9178;51.120;6.192;2023-04-01T07:46:39;2.90;;;2.70;;
18102;SDS011;9178;51.120;6.192;2023-04-01T07:49:29;2.83;;;2.63;;
18102;SDS011;9178;51.120;6.192;2023-04-01T07:52:04;2.90;;;2.70;;
18102;SDS011;9178;51.120;6.192;2023-04-01T07:54:39;2.70;;;2.50;;
18102;SDS011;9178;51.120;6.192;2023-04-01T07:57:12;2.97;;;2.77;;
18102;SDS011;9178;51.120;6.192;2023-04-01T07:59:45;2.90;;;2.70;;
18102;SDS011;9178;51.120;6.192;2023-04-01T08:02:24;2.90;;;2.70;;
18102;SDS011;9178;51.120;6.192;2023-04-01T08:05:07;2.67;;;2.47;;
18102;SDS011;9178;51.120;6.192;2023-04-01T08:07:44;2.50;;;2.30;;
18102;SDS011;9178;51.120;6.192;2023-04-01T08:10:17;2.43;;;2.30;;
18102;SDS011;9178;51.120;6.192;2023-04-01T08:12:52;2.93;;;2.73;;
18102;SDS011;9178;51.120;6.192;2023-04-01T08:15:26;2.60;;;2.40;;
18102;SDS011;9178;51.120;6.192;2023-04-01T08:18:01;2.93;;;2.67;;
18102;SDS011;9178;51.120;6.192;2023-04-01T08:20:37;3.00;;;2.80;;
18102;SDS011;9178;51.120;6.192;2023-04-01T08:23:11;2.77;;;2.57;;
18102;SDS011;9178;51.120;6.192;2023-04-01T08:25:40;2.80;;;2.60;;
18102;SDS011;9178;51.120;6.192;2023-04-01T08:28:17;3.00;;;2.80;;
18102;SDS011;9178;51.120;6.192;2023-04-01T08:30:50;2.70;;;2.50;;
18102;SDS011;9178;51.120;6.192;2023-04-01T08:33:23;4.00;;;3.03;;
18102;SDS011;9178;51.120;6.192;2023-04-01T08:35:54;2.70;;;2.50;;
18102;SDS011;9178;51.120;6.192;2023-04-01T08:38:30;2.30;;;2.20;;
18102;SDS011;9178;51.120;6.192;2023-04-01T08:41:03;2.80;;;2.50;;
18102;SDS011;9178;51.120;6.192;2023-04-01T08:43:51;2.70;;;2.50;;
18102;SDS011;9178;51.120;6.192;2023-04-01T08:49:39;2.27;;;2.17;;
18102;SDS011;9178;51.120;6.192;2023-04-01T08:52:26;2.67;;;2.47;;
18102;SDS011;9178;51.120;6.192;2023-04-01T08:55:02;3.17;;;2.80;;
18102;SDS011;9178;51.120;6.192;2023-04-01T08:57:55;3.97;;;3.00;;
18102;SDS011;9178;51.120;6.192;2023-04-01T09:00:33;3.50;;;3.20;;
18102;SDS011;9178;51.120;6.192;2023-04-01T09:03:12;3.50;;;3.20;;
18102;SDS011;9178;51.120;6.192;2023-04-01T09:06:11;3.27;;;2.97;;
18102;SDS011;9178;51.120;6.192;2023-04-01T09:09:02;3.57;;;3.27;;
18102;SDS011;9178;51.120;6.192;2023-04-01T09:12:02;3.23;;;3.03;;
18102;SDS011;9178;51.120;6.192;2023-04-01T09:14:51;3.00;;;2.80;;
18102;SDS011;9178;51.120;6.192;2023-04-01T09:17:37;3.57;;;3.03;;
18102;SDS011;9178;51.120;6.192;2023-04-01T09:20:42;3.30;;;3.00;;
18102;SDS011;9178;51.120;6.192;2023-04-01T09:23:21;3.53;;;3.10;;
18102;SDS011;9178;51.120;6.192;2023-04-01T09:26:11;3.23;;;2.93;;
18102;SDS011;9178;51.120;6.192;2023-04-01T09:28:58;3.00;;;2.80;;
18102;SDS011;9178;51.120;6.192;2023-04-01T09:31:40;3.60;;;2.50;;
18102;SDS011;9178;51.120;6.192;2023-04-01T09:34:26;3.00;;;2.40;;
18102;SDS011;9178;51.120;6.192;2023-04-01T09:37:18;3.07;;;2.77;;
18102;SDS011;9178;51.120;6.192;2023-04-01T09:39:51;2.60;;;2.40;;
18102;SDS011;9178;51.120;6.192;2023-04-01T09:42:42;2.77;;;2.57;;
18102;SDS011;9178;51.120;6.192;2023-04-01T09:48:14;2.90;;;2.70;;
18102;SDS011;9178;51.120;6.192;2023-04-01T09:50:50;3.20;;;3.00;;
18102;SDS011;9178;51.120;6.192;2023-04-01T09:53:36;2.93;;;2.73;;
18102;SDS011;9178;51.120;6.192;2023-04-01T09:59:24;3.70;;;3.40;;
18102;SDS011;9178;51.120;6.192;2023-04-01T10:02:34;4.00;;;3.70;;
18102;SDS011;9178;51.120;6.192;2023-04-01T10:05:38;4.30;;;3.90;;
18102;SDS011;9178;51.120;6.192;2023-04-01T10:08:42;5.03;;;3.97;;
18102;SDS011;9178;51.120;6.192;2023-04-01T10:11:32;4.73;;;3.73;;
18102;SDS011;9178;51.120;6.192;2023-04-01T10:14:42;4.47;;;4.07;;
18102;SDS011;9178;51.120;6.192;2023-04-01T10:17:44;4.43;;;4.13;;
18102;SDS011;9178;51.120;6.192;2023-04-01T10:20:46;4.67;;;4.27;;
18102;SDS011;9178;51.120;6.192;2023-04-01T10:23:50;5.20;;;4.70;;
18102;SDS011;9178;51.120;6.192;2023-04-01T10:26:45;5.73;;;5.23;;
18102;SDS011;9178;51.120;6.192;2023-04-01T10:29:51;4.90;;;4.37;;
18102;SDS011;9178;51.120;6.192;2023-04-01T10:39:20;5.60;;;5.10;;
18102;SDS011;9178;51.120;6.192;2023-04-01T10:42:39;6.10;;;5.50;;
18102;SDS011;9178;51.120;6.192;2023-04-01T10:48:55;6.00;;;5.40;;
18102;SDS011;9178;51.120;6.192;2023-04-01T10:51:45;5.97;;;5.40;;
18102;SDS011;9178;51.120;6.192;2023-04-01T10:54:48;6.33;;;5.73;;
18102;SDS011;9178;51.120;6.192;2023-04-01T10:57:33;6.33;;;5.73;;
18102;SDS011;9178;51.120;6.192;2023-04-01T11:00:30;6.00;;;5.50;;
18102;SDS011;9178;51.120;6.192;2023-04-01T11:03:44;6.10;;;5.50;;
18102;SDS011;9178;51.120;6.192;2023-04-01T11:06:37;7.57;;;5.27;;
18102;SDS011;9178;51.120;6.192;2023-04-01T11:09:43;5.63;;;5.10;;
18102;SDS011;9178;51.120;6.192;2023-04-01T11:13:04;6.40;;;5.00;;
18102;SDS011;9178;51.120;6.192;2023-04-01T11:22:19;4.33;;;4.03;;
18102;SDS011;9178;51.120;6.192;2023-04-01T11:30:57;4.20;;;3.90;;
18102;SDS011;9178;51.120;6.192;2023-04-01T11:33:38;4.23;;;3.93;;
18102;SDS011;9178;51.120;6.192;2023-04-01T11:36:15;4.33;;;4.03;;
18102;SDS011;9178;51.120;6.192;2023-04-01T11:38:56;3.93;;;3.63;;
18102;SDS011;9178;51.120;6.192;2023-04-01T11:41:43;4.07;;;3.77;;
18102;SDS011;9178;51.120;6.192;2023-04-01T11:44:16;4.20;;;3.90;;
18102;SDS011;9178;51.120;6.192;2023-04-01T11:49:40;3.97;;;3.70;;
18102;SDS011;9178;51.120;6.192;2023-04-01T11:52:25;4.23;;;3.93;;
18102;SDS011;9178;51.120;6.192;2023-04-01T11:55:15;4.27;;;3.97;;
18102;SDS011;9178;51.120;6.192;2023-04-01T11:57:56;3.73;;;3.43;;
18102;SDS011;9178;51.120;6.192;2023-04-01T12:00:53;3.83;;;3.53;;
18102;SDS011;9178;51.120;6.192;2023-04-01T12:06:35;4.10;;;3.70;;
18102;SDS011;9178;51.120;6.192;2023-04-01T12:09:12;4.03;;;3.73;;
18102;SDS011;9178;51.120;6.192;2023-04-01T12:11:50;3.93;;;3.63;;
18102;SDS011;9178;51.120;6.192;2023-04-01T12:14:27;3.67;;;3.47;;
18102;SDS011;9178;51.120;6.192;2023-04-01T12:17:02;3.83;;;3.50;;
18102;SDS011;9178;51.120;6.192;2023-04-01T12:19:39;3.37;;;3.17;;
18102;SDS011;9178;51.120;6.192;2023-04-01T12:22:19;3.10;;;2.90;;
18102;SDS011;9178;51.120;6.192;2023-04-01T12:25:07;3.57;;;3.27;;
18102;SDS011;9178;51.120;6.192;2023-04-01T12:27:47;3.70;;;3.40;;
18102;SDS011;9178;51.120;6.192;2023-04-01T12:33:26;3.73;;;3.53;;
18102;SDS011;9178;51.120;6.192;2023-04-01T12:36:08;3.27;;;3.07;;
18102;SDS011;9178;51.120;6.192;2023-04-01T12:38:51;4.20;;;3.80;;
18102;SDS011;9178;51.120;6.192;2023-04-01T12:41:37;4.03;;;3.77;;
18102;SDS011;9178;51.120;6.192;2023-04-01T12:44:21;4.07;;;3.73;;
18102;SDS011;9178;51.120;6.192;2023-04-01T12:49:58;3.70;;;3.50;;
18102;SDS011;9178;51.120;6.192;2023-04-01T12:52:44;4.00;;;3.43;;
18102;SDS011;9178;51.120;6.192;2023-04-01T12:55:35;4.00;;;3.63;;
18102;SDS011;9178;51.120;6.192;2023-04-01T13:01:10;3.53;;;3.30;;
18102;SDS011;9178;51.120;6.192;2023-04-01T13:03:58;3.03;;;2.83;;
18102;SDS011;9178;51.120;6.192;2023-04-01T13:06:48;3.30;;;3.10;;
18102;SDS011;9178;51.120;6.192;2023-04-01T13:09:33;3.20;;;3.00;;
18102;SDS011;9178;51.120;6.192;2023-04-01T13:15:23;3.07;;;2.87;;
18102;SDS011;9178;51.120;6.192;2023-04-01T13:17:59;3.57;;;2.90;;
18102;SDS011;9178;51.120;6.192;2023-04-01T13:20:36;3.13;;;2.83;;
18102;SDS011;9178;51.120;6.192;2023-04-01T13:23:14;3.17;;;2.97;;
18102;SDS011;9178;51.120;6.192;2023-04-01T13:25:51;2.73;;;2.63;;
18102;SDS011;9178;51.120;6.192;2023-04-01T13:28:27;2.90;;;2.73;;
18102;SDS011;9178;51.120;6.192;2023-04-01T13:30:59;2.97;;;2.77;;
18102;SDS011;9178;51.120;6.192;2023-04-01T13:33:33;3.10;;;2.90;;
18102;SDS011;9178;51.120;6.192;2023-04-01T13:36:21;3.57;;;3.27;;
18102;SDS011;9178;51.120;6.192;2023-04-01T13:39:01;3.23;;;2.80;;
18102;SDS011;9178;51.120;6.192;2023-04-01T13:41:43;2.70;;;2.60;;
18102;SDS011;9178;51.120;6.192;2023-04-01T13:44:22;3.00;;;2.80;;
18102;SDS011;9178;51.120;6.192;2023-04-01T13:47:02;3.03;;;2.80;;
18102;SDS011;9178;51.120;6.192;2023-04-01T13:49:57;3.37;;;3.17;;
18102;SDS011;9178;51.120;6.192;2023-04-01T13:52:47;3.40;;;3.20;;
18102;SDS011;9178;51.120;6.192;2023-04-01T13:55:39;3.90;;;3.60;;
18102;SDS011;9178;51.120;6.192;2023-04-01T13:58:24;3.67;;;3.37;;
18102;SDS011;9178;51.120;6.192;2023-04-01T14:01:13;4.03;;;3.73;;
18102;SDS011;9178;51.120;6.192;2023-04-01T14:03:59;4.20;;;3.90;;
18102;SDS011;9178;51.120;6.192;2023-04-01T14:06:59;4.90;;;4.50;;
18102;SDS011;9178;51.120;6.192;2023-04-01T14:12:44;4.63;;;4.23;;
18102;SDS011;9178;51.120;6.192;2023-04-01T14:15:23;4.90;;;4.50;;
18102;SDS011;9178;51.120;6.192;2023-04-01T14:18:09;5.17;;;4.63;;
18102;SDS011;9178;51.120;6.192;2023-04-01T14:20:56;4.73;;;4.33;;
18102;SDS011;9178;51.120;6.192;2023-04-01T14:23:39;4.40;;;4.10;;
18102;SDS011;9178;51.120;6.192;2023-04-01T14:26:30;5.27;;;4.77;;
18102;SDS011;9178;51.120;6.192;2023-04-01T14:29:15;4.83;;;4.43;;
18102;SDS011;9178;51.120;6.192;2023-04-01T14:31:52;4.73;;;4.27;;
18102;SDS011;9178;51.120;6.192;2023-04-01T14:34:32;4.77;;;4.37;;
18102;SDS011;9178;51.120;6.192;2023-04-01T14:37:13;4.70;;;4.30;;
18102;SDS011;9178;51.120;6.192;2023-04-01T14:43:01;4.57;;;4.13;;
18102;SDS011;9178;51.120;6.192;2023-04-01T14:49:00;4.90;;;4.50;;
18102;SDS011;9178;51.120;6.192;2023-04-01T14:51:31;5.37;;;4.60;;
18102;SDS011;9178;51.120;6.192;2023-04-01T14:54:06;6.47;;;5.03;;
18102;SDS011;9178;51.120;6.192;2023-04-01T14:56:40;5.00;;;4.53;;
18102;SDS011;9178;51.120;6.192;2023-04-01T14:59:10;4.97;;;4.50;;
18102;SDS011;9178;51.120;6.192;2023-04-01T15:01:44;5.47;;;4.97;;
18102;SDS011;9178;51.120;6.192;2023-04-01T15:04:22;5.57;;;4.93;;
18102;SDS011;9178;51.120;6.192;2023-04-01T15:07:21;5.20;;;4.70;;
18102;SDS011;9178;51.120;6.192;2023-04-01T15:10:19;5.57;;;5.07;;
18102;SDS011;9178;51.120;6.192;2023-04-01T15:13:20;5.30;;;4.80;;
18102;SDS011;9178;51.120;6.192;2023-04-01T15:16:05;5.33;;;4.83;;
18102;SDS011;9178;51.120;6.192;2023-04-01T15:18:41;4.67;;;4.27;;
18102;SDS011;9178;51.120;6.192;2023-04-01T15:21:20;5.63;;;4.33;;
18102;SDS011;9178;51.120;6.192;2023-04-01T15:24:10;4.60;;;4.20;;
18102;SDS011;9178;51.120;6.192;2023-04-01T15:29:43;5.63;;;4.83;;
18102;SDS011;9178;51.120;6.192;2023-04-01T15:32:31;5.00;;;4.50;;
18102;SDS011;9178;51.120;6.192;2023-04-01T15:35:14;4.90;;;4.40;;
18102;SDS011;9178;51.120;6.192;2023-04-01T15:37:52;5.30;;;4.37;;
18102;SDS011;9178;51.120;6.192;2023-04-01T15:40:22;4.70;;;4.30;;
18102;SDS011;9178;51.120;6.192;2023-04-01T15:43:03;4.80;;;4.40;;
18102;SDS011;9178;51.120;6.192;2023-04-01T15:45:41;5.23;;;4.20;;
18102;SDS011;9178;51.120;6.192;2023-04-01T15:48:23;5.00;;;4.57;;
18102;SDS011;9178;51.120;6.192;2023-04-01T15:51:11;6.37;;;4.40;;
18102;SDS011;9178;51.120;6.192;2023-04-01T15:56:45;5.23;;;4.47;;
18102;SDS011;9178;51.120;6.192;2023-04-01T15:59:22;6.93;;;4.13;;
18102;SDS011;9178;51.120;6.192;2023-04-01T16:01:58;4.70;;;4.30;;
18102;SDS011;9178;51.120;6.192;2023-04-01T16:04:42;4.30;;;3.90;;
18102;SDS011;9178;51.120;6.192;2023-04-01T16:07:19;4.70;;;4.20;;
18102;SDS011;9178;51.120;6.192;2023-04-01T16:10:09;4.30;;;3.90;;
18102;SDS011;9178;51.120;6.192;2023-04-01T16:12:58;4.50;;;4.10;;
18102;SDS011;9178;51.120;6.192;2023-04-01T16:15:39;5.13;;;4.17;;
18102;SDS011;9178;51.120;6.192;2023-04-01T16:18:26;4.40;;;4.00;;
18102;SDS011;9178;51.120;6.192;2023-04-01T16:21:06;5.03;;;4.37;;
18102;SDS011;9178;51.120;6.192;2023-04-01T16:23:39;4.40;;;4.00;;
18102;SDS011;9178;51.120;6.192;2023-04-01T16:26:13;4.87;;;4.43;;
18102;SDS011;9178;51.120;6.192;2023-04-01T16:28:48;4.73;;;4.33;;
18102;SDS011;9178;51.120;6.192;2023-04-01T16:31:26;4.83;;;4.43;;
18102;SDS011;9178;51.120;6.192;2023-04-01T16:33:58;4.87;;;4.47;;
18102;SDS011;9178;51.120;6.192;2023-04-01T16:36:36;4.83;;;4.43;;
18102;SDS011;9178;51.120;6.192;2023-04-01T16:39:19;4.87;;;4.27;;
18102;SDS011;9178;51.120;6.192;2023-04-01T16:41:57;4.50;;;4.10;;
18102;SDS011;9178;51.120;6.192;2023-04-01T16:44:44;5.30;;;4.40;;
18102;SDS011;9178;51.120;6.192;2023-04-01T16:47:16;4.87;;;4.37;;
18102;SDS011;9178;51.120;6.192;2023-04-01T16:49:47;4.30;;;3.90;;
18102;SDS011;9178;51.120;6.192;2023-04-01T16:52:31;4.27;;;3.87;;
18102;SDS011;9178;51.120;6.192;2023-04-01T16:55:12;4.20;;;3.90;;
18102;SDS011;9178;51.120;6.192;2023-04-01T16:57:45;4.20;;;3.80;;
18102;SDS011;9178;51.120;6.192;2023-04-01T17:00:17;7.73;;;4.40;;
18102;SDS011;9178;51.120;6.192;2023-04-01T17:02:56;4.40;;;4.00;;
18102;SDS011;9178;51.120;6.192;2023-04-01T17:05:37;6.37;;;5.07;;
18102;SDS011;9178;51.120;6.192;2023-04-01T17:08:10;4.20;;;3.90;;
18102;SDS011;9178;51.120;6.192;2023-04-01T17:10:49;4.73;;;3.90;;